createdAt,value
2022-11-25T00:10:45.800Z,3.10
2022-11-25T00:25:51.241Z,3.67
2022-11-25T00:41:16.960Z,3.60
2022-11-25T00:56:21.140Z,4.00
2022-11-25T01:11:26.152Z,4.13
2022-11-25T01:26:30.676Z,3.97
2022-11-25T01:41:36.280Z,3.47
2022-11-25T01:57:01.008Z,3.30
2022-11-25T02:12:05.342Z,2.60
2022-11-25T02:27:09.841Z,3.00
2022-11-25T02:42:14.565Z,3.10
2022-11-25T02:57:18.904Z,3.20
2022-11-25T03:12:24.345Z,2.93
2022-11-25T03:27:30.456Z,3.37
2022-11-25T03:42:35.816Z,3.67
2022-11-25T03:57:42.885Z,3.63
2022-11-25T04:12:50.065Z,3.13
2022-11-25T04:27:58.289Z,3.03
2022-11-25T04:43:10.651Z,3.00
2022-11-25T04:58:40.712Z,3.00
2022-11-25T05:13:45.725Z,3.53
2022-11-25T05:28:50.119Z,2.83
2022-11-25T05:43:55.455Z,2.97
2022-11-25T05:59:02.900Z,3.37
2022-11-25T06:14:19.936Z,3.37
2022-11-25T06:29:26.792Z,3.37
2022-11-25T06:44:32.193Z,3.60
2022-11-25T06:59:36.710Z,3.80
2022-11-25T07:14:41.491Z,6.20
2022-11-25T07:30:18.681Z,4.70
2022-11-25T07:45:11.395Z,3.80
2022-11-25T08:00:23.484Z,4.20
2022-11-25T08:15:27.761Z,4.40
2022-11-25T08:30:32.651Z,4.67
2022-11-25T08:45:37.271Z,4.33
2022-11-25T09:00:42.354Z,4.90
2022-11-25T09:15:46.729Z,4.77
2022-11-25T09:30:51.449Z,4.50
2022-11-25T09:46:21.537Z,4.97
2022-11-25T10:01:26.966Z,5.40
2022-11-25T10:16:31.194Z,4.53
2022-11-25T10:31:38.859Z,3.50
2022-11-25T10:47:13.010Z,3.33
2022-11-25T11:02:22.410Z,3.23
2022-11-25T11:17:36.806Z,4.20
2022-11-25T11:32:43.996Z,4.03
2022-11-25T11:48:08.811Z,4.20
2022-11-25T12:03:18.179Z,4.67
2022-11-25T12:18:30.482Z,5.00
2022-11-25T12:33:52.615Z,4.40
2022-11-25T12:48:59.020Z,4.00
2022-11-25T13:04:21.064Z,4.83
2022-11-25T13:19:26.386Z,5.40
2022-11-25T13:34:36.955Z,5.20
2022-11-25T13:49:53.515Z,4.87
2022-11-25T14:05:01.445Z,5.83
2022-11-25T14:20:26.231Z,5.47
2022-11-25T14:35:36.943Z,7.00
2022-11-25T14:50:56.868Z,6.13
2022-11-25T15:06:07.370Z,5.40
2022-11-25T15:21:14.811Z,5.70
2022-11-25T15:36:18.952Z,6.00
2022-11-25T15:51:28.703Z,5.60
2022-11-25T16:06:32.831Z,4.97
2022-11-25T16:21:37.326Z,5.30
2022-11-25T16:36:41.687Z,5.10
2022-11-25T16:51:54.086Z,4.47
2022-11-25T17:22:25.427Z,4.50
2022-11-25T17:37:31.763Z,5.43
2022-11-25T17:52:36.061Z,4.73
2022-11-25T18:07:40.377Z,4.90
2022-11-25T18:22:45.586Z,5.10
2022-11-25T18:37:50.238Z,5.00
2022-11-25T18:52:54.858Z,5.53
2022-11-25T19:07:59.445Z,6.07
2022-11-25T19:23:13.936Z,4.37
2022-11-25T19:38:19.517Z,4.40
2022-11-25T19:53:23.652Z,4.80
2022-11-25T20:08:28.567Z,5.77
2022-11-25T20:23:43.777Z,5.23
2022-11-25T20:38:50.430Z,4.23
2022-11-25T20:53:57.951Z,5.10
2022-11-25T21:09:02.371Z,5.93
2022-11-25T21:24:18.320Z,5.70
2022-11-25T21:39:33.511Z,5.63
2022-11-25T21:54:38.334Z,5.50
2022-11-25T22:09:43.666Z,4.57
2022-11-25T22:24:47.876Z,5.30
2022-11-25T22:39:52.338Z,4.63
2022-11-25T22:54:59.141Z,5.27
2022-11-25T23:10:04.305Z,5.67
2022-11-25T23:25:13.458Z,5.23
2022-11-25T23:40:20.614Z,5.67
2022-11-25T23:55:27.332Z,5.33
